NWK1740 YBLN-YPPH
Flight info
| Callsign | NWK1740 |
|---|---|
| Flight time | 0h 31m |
| Altitude | 17000 |
| Route | BLN W20 PH |
| Aircraft | A320/M-SDE3FGHIRWY/LB1 |
Departure
| Time | 2026-04-27 04:23 |
|---|---|
| Airport | Busselton Margaret River Regional Airport (YBLN) |
Arrival
| Time | 2026-04-27 04:54 |
|---|---|
| Airport | Perth International Airport (YPPH) |
| Time | Latitude | Longitude | Altitude | Speed | Heading |
|---|---|---|---|---|---|
| 2026-04-27 04:03 | -33.68604 | 115.39967 | 54 ft | 0 kts | 341° |
| 2026-04-27 04:18 | -33.68600 | 115.39969 | 55 ft | 1 kts | 7° |
| 2026-04-27 04:19 | -33.68598 | 115.39981 | 58 ft | 3 kts | 88° |
| 2026-04-27 04:19 | -33.68620 | 115.39998 | 55 ft | 5 kts | 160° |
| 2026-04-27 04:19 | -33.68658 | 115.40027 | 58 ft | 8 kts | 115° |
| 2026-04-27 04:19 | -33.68686 | 115.40100 | 58 ft | 11 kts | 115° |
| 2026-04-27 04:20 | -33.68718 | 115.40183 | 60 ft | 11 kts | 112° |
| 2026-04-27 04:20 | -33.68671 | 115.40245 | 59 ft | 13 kts | 25° |
| 2026-04-27 04:20 | -33.68582 | 115.40296 | 59 ft | 16 kts | 25° |
| 2026-04-27 04:20 | -33.68467 | 115.40361 | 59 ft | 20 kts | 25° |
| 2026-04-27 04:21 | -33.68335 | 115.40436 | 53 ft | 21 kts | 25° |
| 2026-04-27 04:21 | -33.68191 | 115.40519 | 57 ft | 24 kts | 26° |
| 2026-04-27 04:21 | -33.68034 | 115.40608 | 60 ft | 26 kts | 26° |
| 2026-04-27 04:21 | -33.67891 | 115.40688 | 58 ft | 17 kts | 23° |
| 2026-04-27 04:22 | -33.67784 | 115.40717 | 59 ft | 14 kts | 7° |
| 2026-04-27 04:22 | -33.67749 | 115.40765 | 59 ft | 9 kts | 148° |
| 2026-04-27 04:22 | -33.67781 | 115.40752 | 62 ft | 0 kts | 205° |
| 2026-04-27 04:23 | -33.67882 | 115.40695 | 60 ft | 49 kts | 205° |
| 2026-04-27 04:23 | -33.68411 | 115.40393 | 61 ft | 115 kts | 205° |
| 2026-04-27 04:23 | -33.69281 | 115.39894 | 177 ft | 150 kts | 205° |
| 2026-04-27 04:23 | -33.70204 | 115.39349 | 786 ft | 146 kts | 204° |
| 2026-04-27 04:24 | -33.71095 | 115.38828 | 1424 ft | 143 kts | 205° |
| 2026-04-27 04:24 | -33.71969 | 115.38229 | 1803 ft | 158 kts | 227° |
| 2026-04-27 04:24 | -33.72356 | 115.36914 | 2021 ft | 184 kts | 271° |
| 2026-04-27 04:24 | -33.71823 | 115.35438 | 2285 ft | 211 kts | 316° |
| 2026-04-27 04:25 | -33.70416 | 115.34728 | 2665 ft | 237 kts | 358° |
| 2026-04-27 04:25 | -33.68697 | 115.34983 | 3173 ft | 260 kts | 14° |
| 2026-04-27 04:25 | -33.66949 | 115.35646 | 4048 ft | 266 kts | 19° |
| 2026-04-27 04:25 | -33.65191 | 115.36427 | 5012 ft | 271 kts | 19° |
| 2026-04-27 04:26 | -33.63412 | 115.37219 | 5991 ft | 274 kts | 18° |
| 2026-04-27 04:26 | -33.61601 | 115.37987 | 6929 ft | 277 kts | 17° |
| 2026-04-27 04:26 | -33.59763 | 115.38724 | 7852 ft | 279 kts | 15° |
| 2026-04-27 04:26 | -33.57900 | 115.39436 | 8775 ft | 282 kts | 15° |
| 2026-04-27 04:27 | -33.56020 | 115.40134 | 9678 ft | 284 kts | 14° |
| 2026-04-27 04:27 | -33.54106 | 115.40832 | 10340 ft | 295 kts | 14° |
| 2026-04-27 04:27 | -33.52092 | 115.41558 | 10579 ft | 318 kts | 14° |
| 2026-04-27 04:27 | -33.49905 | 115.42345 | 10917 ft | 335 kts | 13° |
| 2026-04-27 04:28 | -33.47657 | 115.43158 | 11585 ft | 340 kts | 13° |
| 2026-04-27 04:28 | -33.45380 | 115.43985 | 12325 ft | 343 kts | 13° |
| 2026-04-27 04:28 | -33.43087 | 115.44822 | 13054 ft | 346 kts | 13° |
| 2026-04-27 04:28 | -33.40769 | 115.45668 | 13786 ft | 349 kts | 13° |
| 2026-04-27 04:29 | -33.38435 | 115.46522 | 14425 ft | 352 kts | 13° |
| 2026-04-27 04:29 | -33.36081 | 115.47383 | 15049 ft | 355 kts | 13° |
| 2026-04-27 04:29 | -33.33706 | 115.48248 | 15667 ft | 358 kts | 13° |
| 2026-04-27 04:29 | -33.31307 | 115.49120 | 16277 ft | 361 kts | 12° |
| 2026-04-27 04:30 | -33.28886 | 115.49998 | 16841 ft | 365 kts | 12° |
| 2026-04-27 04:30 | -33.26453 | 115.50881 | 17024 ft | 366 kts | 12° |
| 2026-04-27 04:30 | -33.23970 | 115.51775 | 17075 ft | 383 kts | 12° |
| 2026-04-27 04:30 | -33.21363 | 115.52706 | 17074 ft | 396 kts | 12° |
| 2026-04-27 04:31 | -33.18710 | 115.53662 | 17078 ft | 401 kts | 13° |
| 2026-04-27 04:31 | -33.16044 | 115.54628 | 17074 ft | 401 kts | 13° |
| 2026-04-27 04:31 | -33.13374 | 115.55597 | 17069 ft | 400 kts | 13° |
| 2026-04-27 04:31 | -33.10712 | 115.56560 | 17072 ft | 400 kts | 13° |
| 2026-04-27 04:32 | -33.08080 | 115.57513 | 17072 ft | 401 kts | 13° |
| 2026-04-27 04:32 | -33.05414 | 115.58480 | 17071 ft | 401 kts | 12° |
| 2026-04-27 04:32 | -33.02730 | 115.59451 | 17067 ft | 402 kts | 13° |
| 2026-04-27 04:32 | -33.00058 | 115.60418 | 17064 ft | 401 kts | 13° |
| 2026-04-27 04:33 | -32.97396 | 115.61380 | 17038 ft | 401 kts | 12° |
| 2026-04-27 04:33 | -32.94717 | 115.62343 | 17036 ft | 402 kts | 12° |
| 2026-04-27 04:33 | -32.92036 | 115.63304 | 17036 ft | 403 kts | 12° |
| 2026-04-27 04:33 | -32.89345 | 115.64266 | 17030 ft | 404 kts | 12° |
| 2026-04-27 04:34 | -32.86654 | 115.65231 | 17035 ft | 405 kts | 12° |
| 2026-04-27 04:34 | -32.83947 | 115.66202 | 17045 ft | 406 kts | 12° |
| 2026-04-27 04:34 | -32.81241 | 115.67174 | 17062 ft | 407 kts | 11° |
| 2026-04-27 04:34 | -32.79448 | 115.67819 | 17068 ft | 406 kts | 12° |
| 2026-04-27 04:35 | -32.75854 | 115.69109 | 17060 ft | 403 kts | 12° |
| 2026-04-27 04:35 | -32.73168 | 115.70069 | 17054 ft | 404 kts | 12° |
| 2026-04-27 04:35 | -32.70473 | 115.71034 | 17057 ft | 404 kts | 12° |
| 2026-04-27 04:35 | -32.67779 | 115.71996 | 17056 ft | 404 kts | 12° |
| 2026-04-27 04:36 | -32.65116 | 115.72943 | 17054 ft | 404 kts | 12° |
| 2026-04-27 04:36 | -32.62421 | 115.73901 | 17053 ft | 404 kts | 12° |
| 2026-04-27 04:36 | -32.60601 | 115.74549 | 17054 ft | 405 kts | 12° |
| 2026-04-27 04:36 | -32.57905 | 115.75508 | 17056 ft | 404 kts | 12° |
| 2026-04-27 04:37 | -32.55203 | 115.76472 | 17052 ft | 405 kts | 12° |
| 2026-04-27 04:37 | -32.51608 | 115.77497 | 17046 ft | 399 kts | 3° |
| 2026-04-27 04:37 | -32.48858 | 115.77719 | 17016 ft | 393 kts | 359° |
| 2026-04-27 04:37 | -32.46194 | 115.77877 | 16745 ft | 375 kts | 358° |
| 2026-04-27 04:38 | -32.44484 | 115.77981 | 16581 ft | 367 kts | 358° |
| 2026-04-27 04:38 | -32.41955 | 115.78135 | 16331 ft | 362 kts | 358° |
| 2026-04-27 04:38 | -32.38601 | 115.78333 | 16007 ft | 360 kts | 358° |
| 2026-04-27 04:38 | -32.36950 | 115.78328 | 15846 ft | 355 kts | 349° |
| 2026-04-27 04:39 | -32.34635 | 115.77518 | 15601 ft | 345 kts | 329° |
| 2026-04-27 04:39 | -32.32773 | 115.75798 | 15362 ft | 341 kts | 313° |
| 2026-04-27 04:39 | -32.31015 | 115.73915 | 15118 ft | 342 kts | 325° |
| 2026-04-27 04:39 | -32.28813 | 115.72832 | 14704 ft | 346 kts | 345° |
| 2026-04-27 04:40 | -32.26437 | 115.72687 | 14238 ft | 335 kts | 357° |
| 2026-04-27 04:40 | -32.24165 | 115.72803 | 13774 ft | 319 kts | 358° |
| 2026-04-27 04:40 | -32.21993 | 115.72944 | 13244 ft | 307 kts | 358° |
| 2026-04-27 04:40 | -32.19895 | 115.73103 | 12709 ft | 299 kts | 358° |
| 2026-04-27 04:41 | -32.17831 | 115.73266 | 12116 ft | 296 kts | 358° |
| 2026-04-27 04:41 | -32.15777 | 115.73425 | 11500 ft | 295 kts | 358° |
| 2026-04-27 04:41 | -32.13765 | 115.73579 | 10955 ft | 290 kts | 358° |
| 2026-04-27 04:41 | -32.11783 | 115.73738 | 10445 ft | 281 kts | 358° |
| 2026-04-27 04:42 | -32.09863 | 115.73900 | 10006 ft | 272 kts | 358° |
| 2026-04-27 04:42 | -32.07988 | 115.74060 | 9389 ft | 268 kts | 358° |
| 2026-04-27 04:42 | -32.06141 | 115.74214 | 8761 ft | 264 kts | 359° |
| 2026-04-27 04:42 | -32.04340 | 115.74685 | 8134 ft | 269 kts | 15° |
| 2026-04-27 04:43 | -32.02621 | 115.75564 | 7545 ft | 268 kts | 18° |
| 2026-04-27 04:43 | -32.00923 | 115.76472 | 7061 ft | 267 kts | 18° |
| 2026-04-27 04:43 | -31.99265 | 115.77360 | 6650 ft | 257 kts | 18° |
| 2026-04-27 04:43 | -31.97662 | 115.78214 | 6236 ft | 252 kts | 18° |
| 2026-04-27 04:44 | -31.96068 | 115.79078 | 5930 ft | 252 kts | 19° |
| 2026-04-27 04:44 | -31.94472 | 115.79940 | 5680 ft | 251 kts | 18° |
| 2026-04-27 04:44 | -31.92881 | 115.80789 | 5434 ft | 250 kts | 18° |
| 2026-04-27 04:44 | -31.91297 | 115.81626 | 5186 ft | 248 kts | 16° |
| 2026-04-27 04:45 | -31.89660 | 115.82208 | 4949 ft | 242 kts | 9° |
| 2026-04-27 04:45 | -31.88054 | 115.82660 | 4700 ft | 233 kts | 8° |
| 2026-04-27 04:45 | -31.86503 | 115.83084 | 4324 ft | 225 kts | 9° |
| 2026-04-27 04:45 | -31.84994 | 115.83480 | 3935 ft | 220 kts | 8° |
| 2026-04-27 04:46 | -31.83516 | 115.83856 | 3600 ft | 216 kts | 8° |
| 2026-04-27 04:46 | -31.82041 | 115.84224 | 3359 ft | 215 kts | 8° |
| 2026-04-27 04:46 | -31.80585 | 115.84577 | 3111 ft | 213 kts | 9° |
| 2026-04-27 04:46 | -31.79144 | 115.84901 | 3010 ft | 213 kts | 8° |
| 2026-04-27 04:47 | -31.77692 | 115.85226 | 3003 ft | 212 kts | 8° |
| 2026-04-27 04:47 | -31.76241 | 115.85543 | 3004 ft | 212 kts | 8° |
| 2026-04-27 04:47 | -31.74795 | 115.85864 | 2915 ft | 211 kts | 9° |
| 2026-04-27 04:47 | -31.73373 | 115.86157 | 2832 ft | 208 kts | 8° |
| 2026-04-27 04:48 | -31.71939 | 115.86458 | 2715 ft | 209 kts | 8° |
| 2026-04-27 04:48 | -31.70502 | 115.86755 | 2609 ft | 211 kts | 9° |
| 2026-04-27 04:48 | -31.69174 | 115.87486 | 2512 ft | 216 kts | 40° |
| 2026-04-27 04:48 | -31.68417 | 115.89028 | 2504 ft | 226 kts | 74° |
| 2026-04-27 04:49 | -31.68444 | 115.90902 | 2512 ft | 235 kts | 95° |
| 2026-04-27 04:49 | -31.68765 | 115.92804 | 2508 ft | 238 kts | 98° |
| 2026-04-27 04:49 | -31.69115 | 115.94705 | 2511 ft | 238 kts | 98° |
| 2026-04-27 04:49 | -31.69667 | 115.96541 | 2503 ft | 244 kts | 119° |
| 2026-04-27 04:50 | -31.70896 | 115.97948 | 2509 ft | 249 kts | 140° |
| 2026-04-27 04:50 | -31.72321 | 115.99114 | 2504 ft | 250 kts | 143° |
| 2026-04-27 04:50 | -31.73750 | 116.00232 | 2509 ft | 249 kts | 143° |
| 2026-04-27 04:50 | -31.75303 | 116.01156 | 2513 ft | 252 kts | 162° |
| 2026-04-27 04:51 | -31.77027 | 116.01376 | 2508 ft | 246 kts | 186° |
| 2026-04-27 04:51 | -31.78650 | 116.00979 | 2507 ft | 235 kts | 195° |
| 2026-04-27 04:51 | -31.80232 | 116.00517 | 2470 ft | 234 kts | 194° |
| 2026-04-27 04:51 | -31.81820 | 116.00056 | 2246 ft | 235 kts | 194° |
| 2026-04-27 04:52 | -31.83384 | 115.99603 | 1987 ft | 225 kts | 194° |
| 2026-04-27 04:52 | -31.84852 | 115.99176 | 1682 ft | 209 kts | 192° |
| 2026-04-27 04:52 | -31.86216 | 115.98779 | 1410 ft | 195 kts | 194° |
| 2026-04-27 04:52 | -31.87483 | 115.98410 | 1148 ft | 178 kts | 193° |
| 2026-04-27 04:53 | -31.88608 | 115.98083 | 962 ft | 154 kts | 193° |
| 2026-04-27 04:53 | -31.89584 | 115.97799 | 751 ft | 136 kts | 194° |
| 2026-04-27 04:53 | -31.90484 | 115.97538 | 556 ft | 131 kts | 194° |
| 2026-04-27 04:53 | -31.91358 | 115.97281 | 381 ft | 128 kts | 197° |
| 2026-04-27 04:54 | -31.92216 | 115.97029 | 244 ft | 129 kts | 194° |
| 2026-04-27 04:54 | -31.93091 | 115.96778 | 82 ft | 127 kts | 193° |
| 2026-04-27 04:54 | -31.93817 | 115.96568 | 71 ft | 83 kts | 194° |
| 2026-04-27 04:54 | -31.94212 | 115.96452 | 67 ft | 34 kts | 194° |
| 2026-04-27 04:55 | -31.94364 | 115.96407 | 66 ft | 19 kts | 195° |
| 2026-04-27 04:55 | -31.94426 | 115.96328 | 69 ft | 15 kts | 259° |
| 2026-04-27 04:55 | -31.94412 | 115.96215 | 61 ft | 2 kts | 284° |
| 2026-04-27 04:55 | -31.94407 | 115.96197 | 68 ft | 4 kts | 291° |
| 2026-04-27 04:56 | -31.94378 | 115.96175 | 66 ft | 7 kts | 347° |
| 2026-04-27 04:56 | -31.94310 | 115.96187 | 68 ft | 11 kts | 13° |
| 2026-04-27 04:56 | -31.94225 | 115.96212 | 63 ft | 14 kts | 14° |
| 2026-04-27 04:56 | -31.94123 | 115.96242 | 68 ft | 16 kts | 14° |
| 2026-04-27 04:57 | -31.94006 | 115.96276 | 67 ft | 18 kts | 14° |
| 2026-04-27 04:57 | -31.93875 | 115.96314 | 65 ft | 21 kts | 13° |
| 2026-04-27 04:57 | -31.93726 | 115.96359 | 66 ft | 21 kts | 15° |
| 2026-04-27 04:57 | -31.93641 | 115.96382 | 63 ft | 13 kts | 13° |
| 2026-04-27 04:58 | -31.93545 | 115.96410 | 68 ft | 14 kts | 14° |
| 2026-04-27 04:58 | -31.93467 | 115.96421 | 65 ft | 12 kts | 344° |
| 2026-04-27 04:58 | -31.93409 | 115.96345 | 68 ft | 14 kts | 322° |
| 2026-04-27 04:58 | -31.93352 | 115.96272 | 59 ft | 10 kts | 280° |
| 2026-04-27 04:59 | -31.93341 | 115.96219 | 63 ft | 2 kts | 284° |
| 2026-04-27 04:59 | -31.93340 | 115.96213 | 63 ft | 0 kts | 284° |
| 2026-04-27 05:11 | -31.93344 | 115.96229 | 59 ft | 4 kts | 284° |
| 2026-04-27 05:11 | -31.93350 | 115.96260 | 66 ft | 4 kts | 284° |
| 2026-04-27 05:11 | -31.93356 | 115.96290 | 65 ft | 3 kts | 284° |
| 2026-04-27 05:12 | -31.93353 | 115.96273 | 63 ft | 11 kts | 284° |
| 2026-04-27 05:12 | -31.93347 | 115.96244 | 61 ft | 0 kts | 284° |